Arizgoiti, Spain
Current Conditions -  °F | °C
As of 5:00 PM on Saturday 20 Dec 2014 (Local Time) from LEBB Reporting Station
Haze Haze  
Wind Chill: 55°   Ceiling: 1100
Heat Index: 55°   Visibility: 2.5mi
Dew Point: 54°   Wind: 0mph
Humidity: 94%   Direction: NA
Pressure: 30.53"   Gusts: NA
Location:  43.23°N, 2.89°W
Report Text: LEBB 201600Z 00000KT 4000 BR FEW004 SCT007 BKN011 13/12 Q1034 NOSIG
Loading
Personal Weather Stations






























Interactive Weather Map New forecast layout! Learn more

10-Day Weather Forecast

Advertisements
Track Severe Weather on mobile